Time;durP1;ratioP1;P1;durP2;ratioP2;P2;SDS_P1;SDS_P2;PMS_P1;PMS_P2;Temp;Humidity;BMP_temperature;BMP_pressure;BME280_temperature;BME280_humidity;BME280_pressure;Samples;Min_cycle;Max_cycle;Signal;HPM_P1;HPM_P2
2022/08/13 00:01:36;;;;;;;5.85;3.47;;;;;;;21.71;39.16;101403.47;4983200;28;20019;-90
2022/08/13 00:04:02;;;;;;;6.30;3.63;;;;;;;21.70;38.93;101393.63;4986764;28;20057;-92
2022/08/13 00:09:02;;;;;;;6.60;3.80;;;;;;;21.57;39.06;101406.53;4997016;28;20041;-90
2022/08/13 00:14:11;;;;;;;5.47;3.70;;;;;;;21.45;39.87;101391.38;4987762;28;20080;-89
2022/08/13 00:16:37;;;;;;;5.00;3.40;;;;;;;21.44;39.81;101405.88;4993716;28;20031;-90
2022/08/13 00:19:02;;;;;;;6.47;3.17;;;;;;;21.34;40.16;101398.59;4986712;28;20026;-90
2022/08/13 00:21:28;;;;;;;4.93;3.40;;;;;;;21.36;40.26;101403.84;4991440;28;20030;-91
2022/08/13 00:23:55;;;;;;;6.80;3.38;;;;;;;21.31;40.49;101393.41;4984403;28;20046;-90
2022/08/13 00:26:22;;;;;;;5.68;3.80;;;;;;;21.23;40.51;101400.47;4988249;28;20031;-90
2022/08/13 00:28:49;;;;;;;5.68;2.97;;;;;;;21.24;40.58;101400.34;4988220;28;20023;-91
2022/08/13 00:31:15;;;;;;;6.18;3.20;;;;;;;21.22;40.68;101399.63;4996592;28;20033;-90
2022/08/13 00:33:40;;;;;;;5.75;3.53;;;;;;;21.19;40.51;101404.44;4986431;28;20034;-91
2022/08/13 00:36:06;;;;;;;5.22;3.78;;;;;;;21.13;41.25;101403.13;4987620;28;20172;-91
2022/08/13 00:38:32;;;;;;;4.85;3.72;;;;;;;21.07;40.93;101406.38;4975225;28;20047;-90
2022/08/13 00:40:59;;;;;;;5.03;3.45;;;;;;;21.02;40.80;101400.47;4990292;28;20035;-92
2022/08/13 00:43:26;;;;;;;6.85;3.70;;;;;;;20.99;40.52;101395.34;4980476;28;20054;-90
2022/08/13 00:45:54;;;;;;;8.27;3.97;;;;;;;21.05;40.67;101397.53;4987420;28;20034;-91
2022/08/13 00:51:06;;;;;;;4.47;3.60;;;;;;;20.92;40.39;101395.00;5003010;28;20404;-92
2022/08/13 00:53:32;;;;;;;6.68;3.88;;;;;;;20.91;40.80;101397.88;4994474;28;20093;-91
2022/08/13 00:55:58;;;;;;;4.10;3.70;;;;;;;20.87;41.10;101406.22;4998323;28;20042;-91
2022/08/13 00:58:26;;;;;;;6.63;3.75;;;;;;;20.86;40.84;101411.78;4989082;28;20056;-91
2022/08/13 01:00:56;;;;;;;5.63;3.97;;;;;;;20.73;40.88;101402.97;4992616;28;20235;-91
2022/08/13 01:03:23;;;;;;;7.78;3.70;;;;;;;20.73;41.18;101400.25;4978577;28;20030;-92
2022/08/13 01:05:49;;;;;;;8.25;3.83;;;;;;;20.71;42.19;101404.97;5002875;28;20109;-91
2022/08/13 01:08:17;;;;;;;6.70;3.75;;;;;;;20.71;41.91;101411.22;4996064;28;20034;-90
2022/08/13 01:10:44;;;;;;;6.47;3.50;;;;;;;20.69;42.35;101409.63;4990072;28;20062;-90
2022/08/13 01:13:11;;;;;;;6.80;4.00;;;;;;;20.64;42.01;101402.75;4990697;28;20026;-91
2022/08/13 01:15:41;;;;;;;9.43;4.13;;;;;;;20.63;42.24;101405.59;4990842;28;20038;-90
2022/08/13 01:18:13;;;;;;;7.20;3.70;;;;;;;20.59;41.93;101404.16;4992117;28;20035;-91
2022/08/13 01:20:45;;;;;;;6.50;3.50;;;;;;;20.56;42.16;101410.66;4980751;28;20022;-90
2022/08/13 01:23:10;;;;;;;4.50;3.92;;;;;;;20.47;42.71;101403.28;4984507;28;20027;-91
2022/08/13 01:25:36;;;;;;;5.28;3.92;;;;;;;20.39;42.85;101405.78;4978942;28;20114;-91
2022/08/13 01:28:02;;;;;;;8.57;3.90;;;;;;;20.37;43.10;101405.91;4987462;28;20034;-90
2022/08/13 01:30:29;;;;;;;6.57;4.00;;;;;;;20.30;42.95;101417.38;5007535;28;20149;-89
2022/08/13 01:32:54;;;;;;;7.93;4.10;;;;;;;20.22;43.41;101407.19;5004404;28;20034;-91
2022/08/13 01:35:20;;;;;;;4.55;4.05;;;;;;;20.07;43.33;101381.44;4991841;28;20058;-91
2022/08/13 01:37:53;;;;;;;6.50;3.60;;;;;;;20.19;43.40;101411.97;4980239;28;20139;-90
2022/08/13 01:40:19;;;;;;;6.95;3.80;;;;;;;20.10;43.65;101409.03;5005857;28;20057;-91
2022/08/13 01:42:46;;;;;;;5.15;3.88;;;;;;;20.09;43.65;101410.03;4990269;28;20080;-91
2022/08/13 01:45:13;;;;;;;4.15;3.55;;;;;;;20.05;44.35;101413.13;4985271;28;20045;-91
2022/08/13 01:50:30;;;;;;;6.18;3.80;;;;;;;19.92;45.52;101409.69;4997387;28;20065;-90
2022/08/13 01:53:01;;;;;;;5.68;4.20;;;;;;;19.85;45.91;101412.03;4993862;28;20011;-91
2022/08/13 01:55:55;;;;;;;7.38;3.85;;;;;;;19.85;45.33;101414.72;4985645;28;20031;-90
2022/08/13 01:58:24;;;;;;;5.03;3.92;;;;;;;19.77;46.47;101406.38;4989811;28;20598;-91
2022/08/13 02:00:54;;;;;;;6.18;3.90;;;;;;;19.71;46.82;101407.75;5001118;28;20101;-91
2022/08/13 02:03:20;;;;;;;5.05;3.90;;;;;;;19.62;47.08;101403.09;5007321;28;20014;-91
2022/08/13 02:05:47;;;;;;;6.82;3.50;;;;;;;19.55;47.84;101396.44;5014525;28;20026;-91
2022/08/13 02:08:17;;;;;;;6.53;3.83;;;;;;;19.50;47.71;101399.50;5007621;28;20029;-91
2022/08/13 02:10:44;;;;;;;5.53;4.13;;;;;;;19.49;47.99;101397.78;5023828;28;20027;-91
2022/08/13 02:13:19;;;;;;;5.75;3.72;;;;;;;19.42;47.83;101402.78;5000175;28;20484;-92
2022/08/13 02:15:46;;;;;;;5.03;3.72;;;;;;;19.32;49.07;101401.81;4989924;28;20566;-92
2022/08/13 02:18:17;;;;;;;6.18;3.45;;;;;;;19.28;49.68;101404.88;4989792;28;20104;-91
2022/08/13 02:20:44;;;;;;;4.90;3.70;;;;;;;19.22;50.35;101411.59;4986680;28;20022;-92
2022/08/13 02:23:14;;;;;;;4.15;3.58;;;;;;;19.08;50.56;101399.19;4979316;28;20117;-91
2022/08/13 02:25:41;;;;;;;15.25;9.95;;;;;;;19.06;50.82;101411.06;4992054;28;20137;-90
2022/08/13 02:28:06;;;;;;;6.38;4.50;;;;;;;18.92;51.34;101404.91;4996960;28;20041;-91
2022/08/13 02:30:32;;;;;;;5.90;3.72;;;;;;;18.91;51.47;101413.13;4986223;28;20023;-88
2022/08/13 02:33:00;;;;;;;7.57;5.20;;;;;;;18.88;51.50;101407.97;4979824;28;20023;-89
2022/08/13 02:35:26;;;;;;;8.13;4.78;;;;;;;18.83;51.38;101413.72;4995150;28;20026;-90
2022/08/13 02:37:52;;;;;;;6.32;4.47;;;;;;;18.81;51.70;101412.09;4982085;28;20053;-90
2022/08/13 02:43:02;;;;;;;5.28;3.90;;;;;;;18.83;51.13;101408.31;4988531;28;20045;-90
2022/08/13 02:45:28;;;;;;;5.90;3.65;;;;;;;18.79;50.89;101400.59;4988475;28;20027;-90
2022/08/13 02:47:57;;;;;;;6.00;4.00;;;;;;;18.80;50.37;101405.00;4996936;28;20056;-90
2022/08/13 02:50:24;;;;;;;6.55;3.85;;;;;;;18.80;49.71;101410.41;4994549;28;20057;-89
2022/08/13 02:52:51;;;;;;;5.55;4.03;;;;;;;18.76;49.68;101403.50;4994509;28;20033;-91
2022/08/13 02:55:18;;;;;;;7.30;3.80;;;;;;;18.62;49.35;101391.91;4983858;28;20310;-89
2022/08/13 02:57:43;;;;;;;4.60;4.03;;;;;;;18.59;49.85;101402.06;4989282;28;20121;-91
2022/08/13 03:00:09;;;;;;;4.93;3.67;;;;;;;18.60;49.56;101407.38;4982493;28;20058;-90
2022/08/13 03:02:38;;;;;;;4.75;3.78;;;;;;;18.60;49.63;101407.38;4989214;28;20022;-90
2022/08/13 03:05:03;;;;;;;5.47;4.13;;;;;;;18.59;49.72;101412.84;4996513;28;20041;-91
2022/08/13 03:07:29;;;;;;;4.07;3.67;;;;;;;18.56;49.82;101410.38;4986987;28;20027;-90
2022/08/13 03:09:55;;;;;;;5.88;3.53;;;;;;;18.46;49.67;101391.34;4985112;28;20019;-89
2022/08/13 03:12:21;;;;;;;5.85;3.63;;;;;;;18.43;49.93;101407.75;4984303;28;20030;-89
2022/08/13 03:14:48;;;;;;;7.05;4.18;;;;;;;18.44;49.98;101409.50;4983908;28;20038;-90
2022/08/13 03:17:13;;;;;;;6.90;3.97;;;;;;;18.39;50.11;101406.25;5000619;28;20498;-90
2022/08/13 03:19:39;;;;;;;4.93;3.70;;;;;;;18.33;49.96;101391.41;5000832;28;20042;-91
2022/08/13 03:22:06;;;;;;;5.20;3.80;;;;;;;18.25;50.32;101383.03;4985543;28;20085;-90
2022/08/13 03:24:33;;;;;;;4.43;3.83;;;;;;;18.36;50.31;101401.97;4998681;28;20038;-90
2022/08/13 03:27:00;;;;;;;5.70;3.90;;;;;;;18.30;52.07;101407.81;4987145;28;20022;-90
2022/08/13 03:29:26;;;;;;;4.32;3.90;;;;;;;18.24;52.95;101412.81;4988104;28;20013;-92
2022/08/13 03:31:51;;;;;;;6.95;4.43;;;;;;;18.13;53.19;101400.13;4987484;28;20035;-90
2022/08/13 03:34:20;;;;;;;5.45;4.07;;;;;;;18.08;53.15;101396.91;4992815;28;20021;-90
2022/08/13 03:36:46;;;;;;;4.60;3.80;;;;;;;18.08;52.56;101402.28;4984686;28;20052;-89
2022/08/13 03:39:11;;;;;;;5.78;3.88;;;;;;;18.03;52.29;101402.63;4992940;28;20115;-91
2022/08/13 03:41:37;;;;;;;4.55;4.13;;;;;;;18.01;52.57;101409.94;4982573;28;20155;-90
2022/08/13 03:44:05;;;;;;;6.30;3.97;;;;;;;18.00;52.85;101410.06;4983338;28;20038;-90
2022/08/13 03:46:32;;;;;;;5.25;4.10;;;;;;;17.92;53.62;101399.84;4978615;28;20026;-91
2022/08/13 03:48:58;;;;;;;5.55;3.80;;;;;;;17.89;54.45;101395.56;4984368;28;20041;-92
2022/08/13 03:51:23;;;;;;;8.50;4.40;;;;;;;17.68;55.14;101383.59;4987737;28;20408;-90
2022/08/13 03:53:52;;;;;;;5.55;4.28;;;;;;;17.72;55.21;101412.03;4995804;28;20451;-91
2022/08/13 03:56:18;;;;;;;4.68;4.15;;;;;;;17.57;55.88;101400.53;4998091;28;20026;-91
2022/08/13 03:58:44;;;;;;;4.60;4.10;;;;;;;17.57;55.95;101407.75;4989558;28;20404;-90
2022/08/13 04:01:10;;;;;;;6.25;4.00;;;;;;;17.58;56.03;101404.09;5001951;28;20052;-89
2022/08/13 04:03:40;;;;;;;5.50;4.10;;;;;;;17.55;55.74;101401.63;4990080;28;20034;-89
2022/08/13 04:06:19;;;;;;;5.93;3.88;;;;;;;17.54;55.24;101406.13;4978886;28;20035;-89
2022/08/13 04:08:46;;;;;;;4.30;3.97;;;;;;;17.51;56.17;101409.03;4990424;28;20034;-89
2022/08/13 04:11:14;;;;;;;5.88;3.70;;;;;;;17.42;55.69;101389.03;4984252;28;20031;-91
2022/08/13 04:13:41;;;;;;;6.47;4.07;;;;;;;17.47;55.89;101402.16;4985593;28;20027;-90
2022/08/13 04:16:10;;;;;;;8.98;4.00;;;;;;;17.44;55.64;101397.00;4980833;28;20053;-89
2022/08/13 04:18:38;;;;;;;5.13;4.10;;;;;;;17.46;55.26;101399.59;4992593;28;20061;-91
2022/08/13 04:21:08;;;;;;;5.70;4.05;;;;;;;17.40;55.54;101401.75;4992919;28;20041;-88
2022/08/13 04:23:34;;;;;;;5.10;4.05;;;;;;;17.40;55.86;101409.81;4988633;28;20455;-90
2022/08/13 04:26:00;;;;;;;8.02;4.25;;;;;;;17.35;56.27;101408.44;4998564;28;20038;-90
2022/08/13 04:28:26;;;;;;;7.10;4.68;;;;;;;17.32;56.24;101404.13;4987158;28;20089;-91
2022/08/13 04:30:51;;;;;;;8.38;4.78;;;;;;;17.27;56.83;101413.50;4997913;28;20038;-91
2022/08/13 04:33:17;;;;;;;4.82;4.32;;;;;;;17.27;56.81;101411.66;4990775;28;20030;-90
2022/08/13 04:35:46;;;;;;;6.57;4.43;;;;;;;17.22;57.18;101421.00;4980337;28;20019;-90
2022/08/13 04:38:13;;;;;;;5.50;4.15;;;;;;;17.15;57.75;101417.88;4975105;28;20058;-89
2022/08/13 04:40:43;;;;;;;6.88;4.40;;;;;;;17.13;57.91;101417.97;4973209;28;20547;-90
2022/08/13 04:43:10;;;;;;;6.28;4.90;;;;;;;17.12;58.10;101413.56;4988024;28;20039;-91
2022/08/13 04:45:38;;;;;;;5.50;4.50;;;;;;;17.06;57.91;101402.41;5007467;28;20481;-91
2022/08/13 04:48:07;;;;;;;5.53;4.30;;;;;;;17.13;58.08;101417.97;4979423;28;20045;-90
2022/08/13 04:50:34;;;;;;;7.18;4.30;;;;;;;17.05;57.85;101400.66;4991296;28;20034;-91
2022/08/13 04:53:00;;;;;;;6.68;4.45;;;;;;;17.15;57.95;101418.75;4989266;28;20049;-91
2022/08/13 04:55:26;;;;;;;8.15;4.68;;;;;;;17.24;57.60;101419.94;4981326;28;20117;-91
2022/08/13 04:57:52;;;;;;;5.10;4.25;;;;;;;17.31;57.33;101415.00;4988131;28;20452;-90
2022/08/13 05:00:20;;;;;;;6.47;4.90;;;;;;;17.16;56.55;101387.31;4985432;28;20030;-91
2022/08/13 05:02:46;;;;;;;6.13;5.32;;;;;;;17.21;55.89;101390.53;4989819;28;20040;-90
2022/08/13 05:05:11;;;;;;;8.40;5.70;;;;;;;17.34;55.50;101412.94;4983447;28;20042;-91
2022/08/13 05:07:37;;;;;;;10.77;6.18;;;;;;;17.44;55.04;101421.22;4993511;28;20126;-91
2022/08/13 05:10:05;;;;;;;7.45;5.63;;;;;;;17.47;55.04;101426.38;4984211;28;20030;-90
2022/08/13 05:12:36;;;;;;;7.25;5.97;;;;;;;17.53;54.81;101431.34;4977929;28;20165;-89
2022/08/13 05:15:03;;;;;;;7.97;6.05;;;;;;;17.50;54.93;101422.63;4989908;28;20076;-90
2022/08/13 05:17:30;;;;;;;10.18;5.75;;;;;;;17.55;54.78;101420.44;4987792;28;20369;-90
2022/08/13 05:19:55;;;;;;;8.77;5.90;;;;;;;17.64;54.73;101430.56;4987166;28;20364;-90
2022/08/13 05:22:23;;;;;;;6.93;6.25;;;;;;;17.69;54.13;101425.72;4989056;28;20038;-91
2022/08/13 05:24:49;;;;;;;7.90;6.30;;;;;;;17.67;54.08;101419.59;4982875;28;20144;-90
2022/08/13 05:27:14;;;;;;;9.73;6.22;;;;;;;17.75;54.35;101422.63;4974841;28;20058;-88
2022/08/13 05:29:39;;;;;;;8.65;6.60;;;;;;;17.82;53.62;101428.44;4984786;28;20022;-91
2022/08/13 05:32:05;;;;;;;8.40;6.80;;;;;;;18.00;53.59;101437.00;4986980;28;20091;-92
2022/08/13 05:34:31;;;;;;;9.35;7.50;;;;;;;18.14;52.28;101436.84;5001288;28;20029;-91
2022/08/13 05:37:00;;;;;;;9.95;7.22;;;;;;;18.31;51.69;101433.81;4983822;28;20077;-90
2022/08/13 05:39:26;;;;;;;11.15;7.68;;;;;;;18.49;51.42;101430.72;5003467;28;20049;-89
2022/08/13 05:41:51;;;;;;;7.72;6.93;;;;;;;18.63;51.25;101425.97;4990116;28;20030;-90
2022/08/13 05:44:16;;;;;;;9.25;7.43;;;;;;;18.81;50.66;101423.78;4986847;28;20033;-91
2022/08/13 05:46:42;;;;;;;10.27;7.10;;;;;;;18.99;50.16;101423.34;4984492;28;20391;-90
2022/08/13 05:49:08;;;;;;;10.57;7.35;;;;;;;19.21;48.88;101431.47;4996334;28;20048;-90
2022/08/13 05:51:33;;;;;;;8.32;7.18;;;;;;;19.40;48.94;101426.38;4980705;28;20061;-90
2022/08/13 05:53:59;;;;;;;8.35;7.45;;;;;;;19.52;48.82;101413.75;4979268;28;20033;-89
2022/08/13 05:56:36;;;;;;;7.72;7.00;;;;;;;19.76;47.99;101432.53;4994593;28;20058;-91
2022/08/13 05:59:03;;;;;;;10.68;7.47;;;;;;;20.00;47.47;101424.31;4984762;28;20384;-90
2022/08/13 06:04:14;;;;;;;;;;;;;;;20.40;47.11;101427.31;4981555;28;20345;-91
2022/08/13 06:06:40;;;;;;;7.55;6.35;;;;;;;20.59;46.17;101429.34;4980432;28;19926;-92
2022/08/13 06:09:07;;;;;;;7.00;6.30;;;;;;;20.80;45.61;101423.97;4989640;28;20030;-92
2022/08/13 06:11:33;;;;;;;9.63;6.57;;;;;;;20.88;45.72;101421.47;4983422;28;20388;-90
2022/08/13 06:13:58;;;;;;;8.60;5.70;;;;;;;21.15;44.21;101430.91;4982695;28;20027;-91
2022/08/13 06:16:30;;;;;;;9.00;5.57;;;;;;;21.32;44.38;101424.94;4992962;28;20034;-90
2022/08/13 06:18:57;;;;;;;8.88;5.53;;;;;;;21.54;43.40;101423.06;4987588;28;20038;-92
2022/08/13 06:21:24;;;;;;;7.63;5.28;;;;;;;21.72;42.97;101432.25;5003478;28;20022;-92
2022/08/13 06:23:50;;;;;;;9.10;5.25;;;;;;;21.85;43.08;101426.59;5011203;28;20014;-93
2022/08/13 06:26:16;;;;;;;6.30;5.10;;;;;;;21.97;42.32;101427.38;5003863;28;20042;-91
2022/08/13 06:28:44;;;;;;;5.85;4.85;;;;;;;22.05;42.37;101427.53;4991918;28;20027;-91
2022/08/13 06:31:13;;;;;;;6.88;4.68;;;;;;;22.27;42.74;101421.91;5000706;28;20038;-92
2022/08/13 06:33:40;;;;;;;6.20;5.03;;;;;;;22.33;41.45;101420.50;5012871;28;20035;-94
2022/08/13 06:36:09;;;;;;;7.95;5.03;;;;;;;22.47;41.16;101428.22;4999158;28;20078;-92
2022/08/13 06:38:41;;;;;;;7.78;5.05;;;;;;;22.52;41.14;101431.38;5011871;28;20034;-94
2022/08/13 06:41:09;;;;;;;5.03;4.53;;;;;;;22.61;41.17;101430.53;5000761;28;20039;-93
2022/08/13 06:43:40;;;;;;;5.28;4.75;;;;;;;22.83;41.87;101439.41;5014450;28;20042;-90
2022/08/13 06:46:07;;;;;;;4.50;4.05;;;;;;;23.00;40.98;101430.56;4991274;28;20031;-89
2022/08/13 06:48:33;;;;;;;6.65;4.30;;;;;;;23.13;40.70;101432.97;5006456;28;20025;-90
2022/08/13 06:51:00;;;;;;;6.75;4.68;;;;;;;23.35;40.13;101434.47;4990991;28;20073;-90
2022/08/13 06:53:25;;;;;;;5.63;4.50;;;;;;;23.57;40.46;101430.53;4998753;28;20033;-90
2022/08/13 06:55:52;;;;;;;5.25;4.43;;;;;;;23.70;39.12;101432.97;4994078;28;20042;-91
2022/08/13 06:58:25;;;;;;;6.18;4.45;;;;;;;23.84;40.58;101430.63;4993146;28;20018;-92
2022/08/13 07:00:53;;;;;;;4.15;3.80;;;;;;;24.04;38.74;101434.13;4984057;28;20038;-93
2022/08/13 07:03:19;;;;;;;4.60;4.13;;;;;;;24.19;40.65;101431.72;4983531;28;20516;-91
2022/08/13 07:05:44;;;;;;;6.13;4.10;;;;;;;24.43;38.25;101439.34;5000594;28;20081;-95
2022/08/13 07:08:11;;;;;;;8.18;4.03;;;;;;;24.55;38.83;101439.97;5004405;28;20049;-91
2022/08/13 07:10:44;;;;;;;5.78;3.80;;;;;;;24.67;38.02;101444.19;4990872;28;20061;-93
2022/08/13 07:13:10;;;;;;;8.10;4.15;;;;;;;24.90;36.88;101449.13;4993433;28;20084;-92
2022/08/13 07:15:36;;;;;;;8.05;4.68;;;;;;;25.19;36.91;101427.97;4994612;28;20091;-94
2022/08/13 07:18:03;;;;;;;6.55;3.20;;;;;;;25.39;37.26;101449.56;4999561;28;20480;-94
2022/08/13 07:20:28;;;;;;;5.85;3.38;;;;;;;25.61;37.54;101438.09;4995516;28;20014;-94
2022/08/13 07:22:55;;;;;;;4.97;3.03;;;;;;;25.96;38.14;101437.13;4989360;28;20053;-94
2022/08/13 07:25:23;;;;;;;4.10;2.80;;;;;;;26.41;35.22;101441.34;4993985;28;20124;-91
2022/08/13 07:27:51;;;;;;;4.43;2.90;;;;;;;26.67;33.76;101446.75;5003381;28;20027;-95
2022/08/13 07:30:16;;;;;;;6.38;3.00;;;;;;;26.85;34.89;101440.28;4982110;28;20035;-93
2022/08/13 07:32:42;;;;;;;6.75;3.10;;;;;;;27.02;33.75;101445.56;4997158;28;20101;-92
2022/08/13 07:35:09;;;;;;;5.20;3.10;;;;;;;27.26;33.19;101443.88;4997189;28;20435;-95
2022/08/13 07:37:36;;;;;;;3.85;2.72;;;;;;;27.61;33.20;101441.75;4997784;28;20051;-95
2022/08/13 07:40:03;;;;;;;8.30;2.78;;;;;;;27.97;31.56;101443.03;5001593;28;20066;-92
2022/08/13 07:42:31;;;;;;;7.25;2.78;;;;;;;28.36;30.66;101442.19;4995169;28;20116;-95
2022/08/13 07:45:02;;;;;;;5.00;2.70;;;;;;;28.72;30.30;101427.91;4994934;28;20038;-94
2022/08/13 07:47:29;;;;;;;3.38;2.80;;;;;;;29.17;29.30;101431.66;4995789;28;20022;-92
2022/08/13 07:49:57;;;;;;;6.20;2.90;;;;;;;29.58;29.16;101439.50;4984913;28;20117;-93
2022/08/13 07:52:23;;;;;;;4.40;2.78;;;;;;;29.82;28.24;101452.09;4993153;28;20034;-92
2022/08/13 07:54:48;;;;;;;4.50;2.58;;;;;;;30.12;28.85;101445.53;4982342;28;20438;-94
2022/08/13 07:57:13;;;;;;;3.90;2.83;;;;;;;30.52;27.56;101444.13;4996589;28;20092;-93
2022/08/13 07:59:39;;;;;;;4.80;2.78;;;;;;;30.84;27.39;101443.84;4992584;28;20416;-94
2022/08/13 08:02:07;;;;;;;4.68;2.60;;;;;;;31.17;26.82;101444.97;4987951;28;20034;-93
2022/08/13 08:04:35;;;;;;;4.63;3.90;;;;;;;31.61;25.85;101456.78;4994740;28;20026;-95
2022/08/13 08:07:02;;;;;;;6.03;2.47;;;;;;;31.77;27.18;101450.94;4997423;28;20022;-92
2022/08/13 08:09:33;;;;;;;9.35;5.30;;;;;;;32.14;26.94;101444.13;4996755;28;20092;-94
2022/08/13 08:14:49;;;;;;;4.20;2.53;;;;;;;32.75;25.45;101448.81;4976851;28;20073;-93
2022/08/13 08:17:16;;;;;;;4.82;2.85;;;;;;;32.65;25.17;101454.75;4977930;28;20225;-92
2022/08/13 08:19:42;;;;;;;5.75;2.58;;;;;;;32.82;24.05;101452.44;4983672;28;20034;-93
2022/08/13 08:22:11;;;;;;;4.20;2.40;;;;;;;33.24;24.74;101450.34;4980753;28;20195;-93
2022/08/13 08:24:37;;;;;;;14.10;3.13;;;;;;;33.65;24.07;101458.41;4984338;28;20102;-92
2022/08/13 08:27:06;;;;;;;3.67;2.58;;;;;;;33.93;23.27;101449.81;4991394;28;20023;-93
2022/08/13 08:29:33;;;;;;;39.03;5.60;;;;;;;34.30;23.46;101461.16;4995055;28;20018;-91
2022/08/13 08:32:08;;;;;;;4.40;2.55;;;;;;;34.65;24.07;101458.84;4997377;28;20073;-90
2022/08/13 08:34:35;;;;;;;6.32;2.55;;;;;;;34.90;22.65;101452.50;4992489;28;20026;-94
2022/08/13 08:37:02;;;;;;;5.45;2.40;;;;;;;35.48;22.67;101462.50;4984747;28;20041;-94
2022/08/13 08:45:00;;;;;;;4.82;2.22;;;;;;;36.28;19.18;101465.22;4983077;28;20121;-95
2022/08/13 08:47:31;;;;;;;7.88;2.60;;;;;;;36.56;19.41;101454.41;4986550;28;20022;-94
2022/08/13 08:49:58;;;;;;;4.25;1.70;;;;;;;36.68;19.65;101457.22;4988554;28;20344;-93
2022/08/13 08:55:11;;;;;;;2.97;1.77;;;;;;;38.02;18.24;101467.75;4981856;28;20089;-92
2022/08/13 08:57:39;;;;;;;4.28;2.10;;;;;;;38.23;19.65;101469.84;4980590;28;20034;-93
2022/08/13 09:00:05;;;;;;;3.10;2.00;;;;;;;38.30;17.74;101458.59;4988298;28;20038;-93
2022/08/13 09:02:33;;;;;;;2.55;2.00;;;;;;;38.68;19.43;101457.94;4983936;28;20493;-94
2022/08/13 09:05:01;;;;;;;3.55;1.70;;;;;;;38.84;16.83;101459.94;4995716;28;20053;-91
2022/08/13 09:07:29;;;;;;;8.18;1.98;;;;;;;38.59;17.67;101453.91;5003216;28;20030;-91
2022/08/13 09:09:57;;;;;;;4.13;1.83;;;;;;;38.75;17.28;101457.78;4994646;28;20448;-91
2022/08/13 09:12:26;;;;;;;6.45;2.08;;;;;;;39.42;17.02;101446.69;4995848;28;20030;-92
2022/08/13 09:14:52;;;;;;;3.95;1.90;;;;;;;39.69;17.67;101449.63;4994823;28;20392;-93
2022/08/13 09:17:19;;;;;;;3.28;1.83;;;;;;;40.21;17.44;101451.97;4995845;28;20100;-91
2022/08/13 09:19:44;;;;;;;4.32;1.75;;;;;;;40.79;16.89;101442.00;4987915;28;20031;-92
2022/08/13 09:22:14;;;;;;;2.63;1.60;;;;;;;41.44;14.76;101445.63;5002272;28;20522;-93
2022/08/13 09:24:45;;;;;;;5.82;1.70;;;;;;;41.26;15.58;101432.06;5001951;28;20364;-92
2022/08/13 09:27:15;;;;;;;4.97;1.80;;;;;;;40.76;15.28;101433.31;5004657;28;20025;-92
2022/08/13 09:29:42;;;;;;;2.47;1.67;;;;;;;40.98;15.25;101439.69;4996845;28;20022;-92
2022/08/13 09:32:09;;;;;;;2.97;1.60;;;;;;;41.46;16.07;101451.78;4995509;28;20053;-91
2022/08/13 09:34:39;;;;;;;2.70;1.77;;;;;;;42.18;14.49;101435.34;4992690;28;20049;-93
2022/08/13 09:37:07;;;;;;;1.75;1.40;;;;;;;42.75;13.69;101440.00;4993648;28;20053;-93
2022/08/13 09:39:37;;;;;;;1.95;1.30;;;;;;;42.62;12.62;101446.13;4995452;28;20428;-94
2022/08/13 09:42:10;;;;;;;1.73;1.40;;;;;;;42.67;13.58;101441.38;4998305;28;20027;-91
2022/08/13 09:44:41;;;;;;;2.15;1.40;;;;;;;42.94;12.62;101441.13;4996549;28;20022;-93
2022/08/13 09:47:08;;;;;;;2.55;1.40;;;;;;;43.11;12.80;101435.25;4998129;28;20034;-94
2022/08/13 09:49:33;;;;;;;2.35;1.20;;;;;;;43.22;12.52;101430.47;4991006;28;20025;-93
2022/08/13 09:51:59;;;;;;;3.95;1.40;;;;;;;43.45;12.47;101441.09;4996726;28;20034;-96
2022/08/13 09:54:24;;;;;;;3.67;1.65;;;;;;;43.37;12.05;101429.59;4989025;28;20118;-91
2022/08/13 09:56:50;;;;;;;2.70;1.40;;;;;;;43.82;13.24;101419.41;4995429;28;20117;-91
2022/08/13 09:59:15;;;;;;;2.75;1.30;;;;;;;44.42;11.67;101432.28;4989929;28;20472;-90
2022/08/13 10:01:41;;;;;;;1.70;1.50;;;;;;;44.54;12.22;101431.94;4985555;28;20035;-91
2022/08/13 10:04:06;;;;;;;1.92;1.40;;;;;;;44.46;10.84;101426.94;4991072;28;20293;-90
2022/08/13 10:06:32;;;;;;;2.73;1.40;;;;;;;44.34;11.15;101432.91;5002762;28;20067;-95
2022/08/13 10:09:00;;;;;;;3.22;1.30;;;;;;;44.34;11.85;101427.28;4984280;28;20381;-90
2022/08/13 10:11:28;;;;;;;2.60;1.35;;;;;;;44.88;12.20;101419.88;5014886;28;20022;-90
2022/08/13 10:13:54;;;;;;;2.45;1.30;;;;;;;45.56;10.46;101416.13;5004633;28;20022;-90
2022/08/13 10:16:23;;;;;;;3.60;1.40;;;;;;;45.53;10.66;101417.59;5009877;28;20020;-91
2022/08/13 10:18:48;;;;;;;1.88;1.00;;;;;;;45.83;11.20;101412.75;5001076;28;20038;-88
2022/08/13 10:21:14;;;;;;;2.33;1.10;;;;;;;45.94;9.87;101417.06;4991430;28;20076;-91
2022/08/13 10:23:40;;;;;;;2.55;1.30;;;;;;;45.55;9.79;101412.47;5011519;28;20045;-91
2022/08/13 10:26:07;;;;;;;2.25;1.30;;;;;;;45.50;10.97;101409.75;5009827;28;20096;-89
2022/08/13 10:28:36;;;;;;;1.80;1.40;;;;;;;46.23;10.75;101411.31;5007983;28;20041;-89
2022/08/13 10:31:04;;;;;;;1.35;1.25;;;;;;;46.84;9.82;101416.00;5014069;28;20146;-90
2022/08/13 10:33:32;;;;;;;1.95;1.23;;;;;;;47.30;9.53;101411.50;5009930;28;20037;-92
2022/08/13 10:35:58;;;;;;;4.47;2.35;;;;;;;47.25;9.35;101415.28;5014043;28;20101;-92
2022/08/13 10:38:27;;;;;;;1.92;1.17;;;;;;;46.13;9.50;101409.47;5011670;28;20061;-92
2022/08/13 10:40:54;;;;;;;4.38;2.63;;;;;;;45.70;11.00;101412.31;5015523;28;20034;-91
2022/08/13 10:43:21;;;;;;;1.73;1.20;;;;;;;46.63;9.82;101407.06;5015012;28;20049;-93
2022/08/13 10:45:47;;;;;;;1.80;1.40;;;;;;;47.38;9.39;101399.53;5008067;28;20270;-92
2022/08/13 10:48:13;;;;;;;2.47;1.35;;;;;;;47.80;8.84;101403.19;5007300;28;20020;-92
2022/08/13 10:50:39;;;;;;;7.78;1.27;;;;;;;47.88;8.67;101391.16;5006958;28;20038;-90
2022/08/13 10:53:06;;;;;;;2.97;1.10;;;;;;;47.51;8.77;101395.06;4991212;28;20018;-90
2022/08/13 10:55:31;;;;;;;3.00;0.93;;;;;;;46.90;8.87;101397.84;5000461;28;20069;-90
2022/08/13 10:57:58;;;;;;;2.92;1.30;;;;;;;47.19;10.10;101391.13;4999014;28;20050;-90
2022/08/13 11:00:24;;;;;;;1.83;1.13;;;;;;;47.47;8.53;101402.47;4998346;28;20026;-91
2022/08/13 11:02:50;;;;;;;2.20;1.20;;;;;;;47.81;8.55;101393.56;4994947;28;20026;-91
2022/08/13 11:05:19;;;;;;;1.50;1.20;;;;;;;48.09;9.19;101391.56;4994630;28;20388;-92
2022/08/13 11:07:47;;;;;;;3.90;1.00;;;;;;;48.27;9.28;101390.53;4990911;28;20033;-91
2022/08/13 11:10:13;;;;;;;2.17;1.23;;;;;;;48.15;8.77;101395.91;4989748;28;20034;-91
2022/08/13 11:12:50;;;;;;;2.88;1.20;;;;;;;48.05;9.00;101402.66;4993340;28;20190;-91
2022/08/13 11:15:20;;;;;;;3.75;1.75;;;;;;;47.85;8.27;101394.63;4994874;28;20037;-91
2022/08/13 11:17:50;;;;;;;2.65;1.10;;;;;;;46.82;8.75;101381.66;4992104;28;20058;-92
2022/08/13 11:20:19;;;;;;;1.17;1.10;;;;;;;46.99;9.26;101389.56;4995371;28;20034;-88
2022/08/13 11:22:53;;;;;;;2.45;1.10;;;;;;;47.08;8.99;101372.78;5001894;28;20483;-92
2022/08/13 11:25:19;;;;;;;2.92;1.20;;;;;;;47.61;8.96;101359.00;4990594;28;20030;-92
2022/08/13 11:27:45;;;;;;;1.20;1.10;;;;;;;48.23;8.87;101378.22;4991069;28;20109;-92
2022/08/13 11:30:11;;;;;;;1.80;1.13;;;;;;;48.37;8.67;101375.34;5000026;28;20050;-92
2022/08/13 11:32:36;;;;;;;1.48;1.20;;;;;;;48.01;8.32;101364.06;4998596;28;20025;-94
2022/08/13 11:35:04;;;;;;;2.65;1.35;;;;;;;47.69;8.89;101363.09;4992041;28;20049;-92
2022/08/13 11:37:30;;;;;;;2.00;1.17;;;;;;;47.76;8.40;101357.84;4986630;28;20113;-90
2022/08/13 11:39:55;;;;;;;2.22;1.20;;;;;;;47.47;8.67;101371.44;4998095;28;20105;-91
2022/08/13 11:42:20;;;;;;;2.47;1.48;;;;;;;46.90;9.46;101352.78;4992645;28;20022;-94
2022/08/13 11:44:46;;;;;;;2.88;1.25;;;;;;;46.43;9.25;101371.59;5002793;28;20030;-91
2022/08/13 11:47:11;;;;;;;3.13;1.50;;;;;;;46.86;9.16;101371.44;4988726;28;20403;-93
2022/08/13 11:49:37;;;;;;;4.55;1.40;;;;;;;46.97;10.14;101354.38;5008866;28;20422;-92
2022/08/13 11:52:03;;;;;;;2.42;1.30;;;;;;;47.72;9.60;101365.28;4978427;28;20022;-89
2022/08/13 11:54:28;;;;;;;4.13;1.33;;;;;;;48.59;8.95;101366.91;5005185;28;20026;-91